createdAt,value
2023-08-15T00:00:24.779Z,98348.31
2023-08-15T00:02:51.483Z,98337.16
2023-08-15T00:05:18.132Z,98338.16
2023-08-15T00:08:03.825Z,98338.31
2023-08-15T00:10:30.409Z,98337.84
2023-08-15T00:12:56.979Z,98334.97
2023-08-15T00:15:23.579Z,98335.84
2023-08-15T00:17:50.170Z,98334.31
2023-08-15T00:20:16.743Z,98335.91
2023-08-15T00:22:43.256Z,98333.56
2023-08-15T00:25:09.812Z,98326.38
2023-08-15T00:27:36.354Z,98321.63
2023-08-15T00:30:04.090Z,98315.47
2023-08-15T00:32:32.841Z,98313.81
2023-08-15T00:34:59.483Z,98319.44
2023-08-15T00:37:26.087Z,98313.28
2023-08-15T00:39:52.634Z,98312.72
2023-08-15T00:42:19.397Z,98305.41
2023-08-15T00:44:45.992Z,98309.50
2023-08-15T00:47:14.376Z,98306.00
2023-08-15T00:49:44.754Z,98303.41
2023-08-15T00:52:13.848Z,98299.44
2023-08-15T00:54:46.905Z,98291.97
2023-08-15T00:57:13.783Z,98306.31
2023-08-15T00:59:43.851Z,98306.00
2023-08-15T01:02:11.589Z,98305.53
2023-08-15T01:04:39.822Z,98307.69
2023-08-15T01:07:06.382Z,98307.88
2023-08-15T01:09:32.907Z,98298.13
2023-08-15T01:12:22.802Z,98303.41
2023-08-15T01:14:59.525Z,98307.06
2023-08-15T01:17:35.722Z,98305.75
2023-08-15T01:20:09.907Z,98312.22
2023-08-15T01:22:41.351Z,98317.00
2023-08-15T01:25:08.449Z,98325.09
2023-08-15T01:27:35.366Z,98325.09
2023-08-15T01:30:02.193Z,98341.56
2023-08-15T01:32:59.996Z,98403.22
2023-08-15T01:35:34.510Z,98435.59
2023-08-15T01:38:08.757Z,98451.38
2023-08-15T01:40:36.709Z,98435.25
2023-08-15T01:43:04.214Z,98435.97
2023-08-15T01:45:31.784Z,98434.91
2023-08-15T01:47:58.945Z,98439.50
2023-08-15T01:50:25.627Z,98450.69
2023-08-15T01:52:52.210Z,98430.41
2023-08-15T01:55:18.794Z,98431.06
2023-08-15T01:57:45.455Z,98400.00
2023-08-15T02:00:12.416Z,98386.88
2023-08-15T02:02:44.681Z,98444.84
2023-08-15T02:05:14.424Z,98453.69
2023-08-15T02:07:41.591Z,98419.66
2023-08-15T02:10:08.469Z,98400.63
2023-08-15T02:12:35.030Z,98378.69
2023-08-15T02:15:01.715Z,98343.88
2023-08-15T02:17:28.325Z,98332.88
2023-08-15T02:19:57.732Z,98305.56
2023-08-15T02:22:24.274Z,98268.72
2023-08-15T02:24:50.924Z,98261.44
2023-08-15T02:27:17.490Z,98263.22
2023-08-15T02:29:44.036Z,98274.16
2023-08-15T02:32:13.168Z,98272.81
2023-08-15T02:34:39.702Z,98267.09
2023-08-15T02:37:06.267Z,98282.00
2023-08-15T02:39:33.860Z,98276.94
2023-08-15T02:42:00.471Z,98289.09
2023-08-15T02:44:27.103Z,98300.09
2023-08-15T02:46:53.759Z,98315.09
2023-08-15T02:49:20.384Z,98305.41
2023-08-15T02:51:46.984Z,98313.91
2023-08-15T02:54:13.562Z,98321.69
2023-08-15T02:56:40.223Z,98313.69
2023-08-15T02:59:06.917Z,98311.22
2023-08-15T03:01:33.690Z,98307.34
2023-08-15T03:04:00.332Z,98306.69
2023-08-15T03:06:26.927Z,98313.66
2023-08-15T03:08:53.499Z,98329.56
2023-08-15T03:11:20.021Z,98336.34
2023-08-15T03:13:46.591Z,98357.19
2023-08-15T03:16:13.253Z,98380.78
2023-08-15T03:18:39.843Z,98402.47
2023-08-15T03:21:06.939Z,98412.94
2023-08-15T03:23:34.203Z,98416.16
2023-08-15T03:26:02.732Z,98441.00
2023-08-15T03:28:33.922Z,98439.22
2023-08-15T03:31:10.150Z,98436.78
2023-08-15T03:33:44.803Z,98451.22
2023-08-15T03:36:12.143Z,98461.91
2023-08-15T03:38:38.872Z,98441.63
2023-08-15T03:41:07.030Z,98446.06
2023-08-15T03:43:36.164Z,98465.00
2023-08-15T03:46:04.105Z,98447.66
2023-08-15T03:48:33.768Z,98458.38
2023-08-15T03:51:01.700Z,98464.69
2023-08-15T03:53:28.974Z,98461.94
2023-08-15T03:55:57.073Z,98470.94
2023-08-15T03:58:24.658Z,98478.44
2023-08-15T04:00:52.035Z,98483.25
2023-08-15T04:03:19.498Z,98486.78
2023-08-15T04:05:48.225Z,98473.22
2023-08-15T04:08:16.143Z,98473.28
2023-08-15T04:10:45.988Z,98448.63
2023-08-15T04:13:13.285Z,98447.50
2023-08-15T04:15:40.415Z,98433.13
2023-08-15T04:18:09.199Z,98435.28
2023-08-15T04:20:40.619Z,98440.63
2023-08-15T04:23:08.764Z,98430.28
2023-08-15T04:25:37.424Z,98418.88
2023-08-15T04:28:05.449Z,98421.72
2023-08-15T04:30:34.152Z,98420.03
2023-08-15T04:33:01.188Z,98416.47
2023-08-15T04:35:29.861Z,98408.94
2023-08-15T04:37:57.033Z,98400.19
2023-08-15T04:40:32.433Z,98419.06
2023-08-15T04:43:00.379Z,98418.56
2023-08-15T04:45:27.743Z,98420.34
2023-08-15T04:47:54.587Z,98410.13
2023-08-15T04:50:21.393Z,98402.72
2023-08-15T04:52:48.144Z,98393.94
2023-08-15T04:55:14.853Z,98388.59
2023-08-15T04:57:41.890Z,98397.09
2023-08-15T05:00:09.971Z,98391.69
2023-08-15T05:02:37.126Z,98396.72
2023-08-15T05:05:07.257Z,98400.53
2023-08-15T05:07:34.800Z,98388.53
2023-08-15T05:10:01.362Z,98382.13
2023-08-15T05:12:29.373Z,98377.59
2023-08-15T05:14:56.344Z,98389.72
2023-08-15T05:17:23.389Z,98388.19
2023-08-15T05:19:50.415Z,98389.63
2023-08-15T05:22:17.010Z,98392.34
2023-08-15T05:24:43.589Z,98395.34
2023-08-15T05:27:12.844Z,98403.72
2023-08-15T05:29:42.988Z,98409.88
2023-08-15T05:32:09.686Z,98414.19
2023-08-15T05:34:36.599Z,98420.09
2023-08-15T05:37:03.188Z,98405.97
2023-08-15T05:39:29.983Z,98409.56
2023-08-15T05:41:56.575Z,98414.38
2023-08-15T05:44:23.183Z,98423.63
2023-08-15T05:46:49.746Z,98421.81
2023-08-15T05:49:16.351Z,98412.47
2023-08-15T05:51:42.884Z,98419.44
2023-08-15T05:54:09.478Z,98416.47
2023-08-15T05:56:36.015Z,98408.09
2023-08-15T05:59:02.663Z,98416.53
2023-08-15T06:01:29.221Z,98410.44
2023-08-15T06:03:55.914Z,98409.06
2023-08-15T06:06:23.751Z,98418.09
2023-08-15T06:08:50.329Z,98428.28
2023-08-15T06:11:16.876Z,98436.59
2023-08-15T06:13:43.377Z,98428.31
2023-08-15T06:16:11.444Z,98432.63
2023-08-15T06:18:40.112Z,98424.03
2023-08-15T06:21:06.643Z,98421.78
2023-08-15T06:23:33.293Z,98430.09
2023-08-15T06:25:59.895Z,98428.72
2023-08-15T06:28:26.436Z,98437.88
2023-08-15T06:30:53.012Z,98431.41
2023-08-15T06:33:19.529Z,98439.47
2023-08-15T06:35:46.097Z,98442.44
2023-08-15T06:38:12.684Z,98439.00
2023-08-15T06:40:40.352Z,98436.38
2023-08-15T06:43:06.848Z,98445.25
2023-08-15T06:45:35.332Z,98449.03
2023-08-15T06:48:03.745Z,98449.28
2023-08-15T06:50:30.337Z,98443.34
2023-08-15T06:52:56.847Z,98447.06
2023-08-15T06:55:23.439Z,98453.59
2023-08-15T06:57:49.956Z,98448.22
2023-08-15T07:00:17.600Z,98452.75
2023-08-15T07:02:44.248Z,98453.41
2023-08-15T07:05:11.799Z,98450.88
2023-08-15T07:07:38.534Z,98465.44
2023-08-15T07:10:08.648Z,98464.94
2023-08-15T07:12:35.327Z,98467.47
2023-08-15T07:15:02.868Z,98471.72
2023-08-15T07:17:29.474Z,98468.44
2023-08-15T07:19:56.748Z,98471.56
2023-08-15T07:22:23.642Z,98470.75
2023-08-15T07:24:50.862Z,98466.44
2023-08-15T07:27:17.427Z,98462.09
2023-08-15T07:29:43.969Z,98448.44
2023-08-15T07:32:13.017Z,98446.09
2023-08-15T07:34:40.022Z,98448.03
2023-08-15T07:37:06.539Z,98448.22
2023-08-15T07:39:33.349Z,98445.56
2023-08-15T07:42:00.064Z,98458.75
2023-08-15T07:44:26.964Z,98451.75
2023-08-15T07:46:53.933Z,98442.38
2023-08-15T07:49:20.439Z,98451.88
2023-08-15T07:51:47.057Z,98452.59
2023-08-15T07:54:14.612Z,98465.66
2023-08-15T07:56:41.420Z,98458.94
2023-08-15T07:59:07.983Z,98469.28
2023-08-15T08:01:34.593Z,98476.72
2023-08-15T08:04:01.894Z,98465.91
2023-08-15T08:06:39.842Z,98467.53
2023-08-15T08:09:07.534Z,98466.84
2023-08-15T08:11:34.194Z,98463.09
2023-08-15T08:14:00.915Z,98461.44
2023-08-15T08:16:27.527Z,98469.44
2023-08-15T08:18:54.711Z,98471.59
2023-08-15T08:21:21.315Z,98484.13
2023-08-15T08:23:47.873Z,98466.00
2023-08-15T08:26:14.431Z,98466.69
2023-08-15T08:28:41.101Z,98468.44
2023-08-15T08:31:08.240Z,98461.47
2023-08-15T08:33:34.986Z,98471.06
2023-08-15T08:36:01.592Z,98474.88
2023-08-15T08:38:28.695Z,98467.84
2023-08-15T08:40:58.683Z,98476.38
2023-08-15T08:43:26.370Z,98470.41
2023-08-15T08:45:58.637Z,98469.00
2023-08-15T08:48:25.565Z,98482.69
2023-08-15T08:50:53.143Z,98485.00
2023-08-15T08:53:19.872Z,98478.00
2023-08-15T08:55:48.725Z,98484.75
2023-08-15T08:58:15.371Z,98493.63
2023-08-15T09:00:42.260Z,98502.69
2023-08-15T09:03:10.903Z,98512.25
2023-08-15T09:05:38.012Z,98514.09
2023-08-15T09:08:05.470Z,98527.00
2023-08-15T09:10:32.238Z,98522.97
2023-08-15T09:13:00.674Z,98526.06
2023-08-15T09:15:28.245Z,98537.31
2023-08-15T09:18:01.091Z,98533.69
2023-08-15T09:20:28.541Z,98541.19
2023-08-15T09:22:59.653Z,98544.28
2023-08-15T09:25:28.450Z,98537.31
2023-08-15T09:27:55.783Z,98537.25
2023-08-15T09:30:22.738Z,98537.66
2023-08-15T09:32:49.458Z,98548.56
2023-08-15T09:35:18.324Z,98542.47
2023-08-15T09:37:49.979Z,98551.91
2023-08-15T09:40:18.594Z,98564.31
2023-08-15T09:42:46.477Z,98574.31
2023-08-15T09:45:14.816Z,98583.75
2023-08-15T09:47:42.148Z,98584.00
2023-08-15T09:50:10.248Z,98596.38
2023-08-15T09:52:45.166Z,98621.53
2023-08-15T09:55:13.965Z,98624.69
2023-08-15T09:57:42.596Z,98636.16
2023-08-15T10:00:14.248Z,98655.22
2023-08-15T10:02:46.993Z,98669.06
2023-08-15T10:05:18.274Z,98691.22
2023-08-15T10:07:46.211Z,98682.00
2023-08-15T10:10:15.070Z,98669.50
2023-08-15T10:12:42.593Z,98678.91
2023-08-15T10:15:10.769Z,98683.81
2023-08-15T10:17:38.792Z,98680.19
2023-08-15T10:20:12.290Z,98663.28
2023-08-15T10:22:40.687Z,98675.81
2023-08-15T10:25:25.289Z,98681.25
2023-08-15T10:27:54.702Z,98667.16
2023-08-15T10:30:49.863Z,98673.53
2023-08-15T10:33:21.637Z,98668.16
2023-08-15T10:35:57.035Z,98663.38
2023-08-15T10:38:28.700Z,98659.41
2023-08-15T10:41:05.093Z,98653.78
2023-08-15T10:43:36.427Z,98661.34
2023-08-15T10:46:05.519Z,98647.94
2023-08-15T10:51:32.880Z,98647.16
2023-08-15T10:54:05.213Z,98636.66
2023-08-15T10:56:34.079Z,98638.69
2023-08-15T10:59:06.473Z,98629.97
2023-08-15T11:01:33.192Z,98619.63
2023-08-15T11:04:00.556Z,98609.91
2023-08-15T11:06:27.199Z,98603.47
2023-08-15T11:08:55.798Z,98596.25
2023-08-15T11:11:23.107Z,98595.72
2023-08-15T11:13:52.000Z,98597.19
2023-08-15T11:16:21.789Z,98599.13
2023-08-15T11:18:49.216Z,98603.22
2023-08-15T11:21:17.411Z,98613.13
2023-08-15T11:23:47.389Z,98608.41
2023-08-15T11:26:15.543Z,98612.09
2023-08-15T11:28:42.224Z,98601.78
2023-08-15T11:31:22.077Z,98598.31
2023-08-15T11:33:52.871Z,98605.28
2023-08-15T11:36:21.094Z,98604.16
2023-08-15T11:38:47.674Z,98604.16
2023-08-15T11:41:14.415Z,98614.88
2023-08-15T11:43:41.105Z,98609.00
2023-08-15T11:46:07.817Z,98616.78
2023-08-15T11:48:35.217Z,98604.09
2023-08-15T11:51:02.126Z,98599.88
2023-08-15T11:53:28.861Z,98603.84
2023-08-15T11:55:55.739Z,98601.19
2023-08-15T11:58:25.223Z,98614.63
2023-08-15T12:00:53.162Z,98630.09
2023-08-15T12:03:19.743Z,98626.88
2023-08-15T12:05:47.953Z,98621.56
2023-08-15T12:08:16.551Z,98643.78
2023-08-15T12:10:45.085Z,98643.25
2023-08-15T12:13:11.598Z,98642.91
2023-08-15T12:15:39.036Z,98632.03
2023-08-15T12:18:06.425Z,98638.25
2023-08-15T12:20:33.746Z,98641.19
2023-08-15T12:23:01.155Z,98635.97
2023-08-15T12:25:28.561Z,98639.38
2023-08-15T12:27:55.379Z,98642.59
2023-08-15T12:30:22.120Z,98633.22
2023-08-15T12:32:49.491Z,98655.00
2023-08-15T12:35:16.047Z,98657.47
2023-08-15T12:37:42.611Z,98664.97
2023-08-15T12:40:15.198Z,98664.06
2023-08-15T12:42:55.891Z,98666.13
2023-08-15T12:45:22.489Z,98671.97
2023-08-15T12:47:49.409Z,98677.34
2023-08-15T12:50:16.066Z,98670.28
2023-08-15T12:52:42.604Z,98679.13
2023-08-15T12:55:09.332Z,98682.31
2023-08-15T12:57:35.841Z,98678.56
2023-08-15T13:00:03.810Z,98673.56
2023-08-15T13:02:30.363Z,98666.19
2023-08-15T13:04:56.993Z,98670.28
2023-08-15T13:07:23.546Z,98661.72
2023-08-15T13:09:50.046Z,98650.50
2023-08-15T13:12:16.554Z,98657.47
2023-08-15T13:14:46.770Z,98662.00
2023-08-15T13:17:13.958Z,98654.97
2023-08-15T13:19:40.440Z,98655.25
2023-08-15T13:22:06.979Z,98637.81
2023-08-15T13:24:33.554Z,98641.84
2023-08-15T13:27:00.089Z,98646.22
2023-08-15T13:29:28.176Z,98642.25
2023-08-15T13:31:54.711Z,98642.88
2023-08-15T13:34:23.083Z,98643.16
2023-08-15T13:36:49.697Z,98641.94
2023-08-15T13:39:16.171Z,98645.50
2023-08-15T13:41:43.233Z,98652.75
2023-08-15T13:44:09.821Z,98642.50
2023-08-15T13:46:36.415Z,98644.16
2023-08-15T13:49:03.764Z,98643.44
2023-08-15T13:51:31.650Z,98639.69
2023-08-15T13:53:58.245Z,98640.22
2023-08-15T13:56:28.201Z,98653.03
2023-08-15T13:58:55.327Z,98652.22
2023-08-15T14:01:22.040Z,98637.97
2023-08-15T14:03:48.617Z,98629.66
2023-08-15T14:06:15.163Z,98642.22
2023-08-15T14:08:41.791Z,98643.03
2023-08-15T14:11:08.550Z,98639.50
2023-08-15T14:13:35.381Z,98640.78
2023-08-15T14:16:02.005Z,98636.22
2023-08-15T14:18:28.606Z,98632.97
2023-08-15T14:20:55.149Z,98635.84
2023-08-15T14:23:21.738Z,98631.22
2023-08-15T14:25:48.287Z,98633.59
2023-08-15T14:28:14.862Z,98625.44
2023-08-15T14:30:41.469Z,98624.63
2023-08-15T14:33:10.648Z,98630.19
2023-08-15T14:35:37.240Z,98632.06
2023-08-15T14:38:04.021Z,98638.19
2023-08-15T14:40:30.587Z,98629.38
2023-08-15T14:42:57.174Z,98632.84
2023-08-15T14:45:23.749Z,98634.75
2023-08-15T14:47:50.394Z,98634.56
2023-08-15T14:50:16.909Z,98637.22
2023-08-15T14:52:43.789Z,98627.81
2023-08-15T14:55:12.160Z,98627.91
2023-08-15T14:57:39.548Z,98621.19
2023-08-15T15:00:10.475Z,98622.53
2023-08-15T15:02:38.620Z,98613.31
2023-08-15T15:05:07.817Z,98615.78
2023-08-15T15:07:34.461Z,98616.56
2023-08-15T15:10:01.872Z,98621.91
2023-08-15T15:12:36.967Z,98608.53
2023-08-15T15:15:03.924Z,98604.22
2023-08-15T15:17:30.547Z,98607.34
2023-08-15T15:19:57.242Z,98611.91
2023-08-15T15:22:27.527Z,98607.41
2023-08-15T15:25:00.778Z,98606.31
2023-08-15T15:27:27.350Z,98610.63
2023-08-15T15:29:53.918Z,98619.53
2023-08-15T15:32:24.405Z,98624.63
2023-08-15T15:34:51.198Z,98620.41
2023-08-15T15:37:17.774Z,98623.94
2023-08-15T15:39:44.504Z,98624.22
2023-08-15T15:42:12.161Z,98623.94
2023-08-15T15:44:38.766Z,98625.84
2023-08-15T15:47:08.710Z,98624.59
2023-08-15T15:49:35.810Z,98618.38
2023-08-15T15:52:02.433Z,98624.06
2023-08-15T15:54:29.078Z,98625.34
2023-08-15T15:56:55.693Z,98616.31
2023-08-15T15:59:22.199Z,98618.72
2023-08-15T16:01:48.841Z,98616.63
2023-08-15T16:04:15.511Z,98614.28
2023-08-15T16:06:42.211Z,98617.75
2023-08-15T16:09:08.888Z,98614.28
2023-08-15T16:11:35.474Z,98611.91
2023-08-15T16:14:02.053Z,98612.19
2023-08-15T16:16:29.183Z,98606.81
2023-08-15T16:18:55.822Z,98607.06
2023-08-15T16:21:22.583Z,98604.09
2023-08-15T16:23:49.735Z,98602.50
2023-08-15T16:26:16.271Z,98610.50
2023-08-15T16:28:44.924Z,98608.31
2023-08-15T16:31:11.866Z,98609.66
2023-08-15T16:33:38.463Z,98613.66
2023-08-15T16:36:05.080Z,98616.88
2023-08-15T16:38:31.661Z,98613.94
2023-08-15T16:40:58.228Z,98614.50
2023-08-15T16:43:27.094Z,98622.78
2023-08-15T16:45:54.149Z,98622.78
2023-08-15T16:48:20.685Z,98623.00
2023-08-15T16:50:47.338Z,98623.81
2023-08-15T16:53:13.896Z,98628.66
2023-08-15T16:55:40.676Z,98632.16
2023-08-15T16:58:07.219Z,98629.25
2023-08-15T17:00:33.928Z,98625.75
2023-08-15T17:03:00.671Z,98629.69
2023-08-15T17:05:27.439Z,98622.75
2023-08-15T17:07:54.072Z,98618.78
2023-08-15T17:10:20.820Z,98620.69
2023-08-15T17:12:47.799Z,98624.97
2023-08-15T17:15:16.463Z,98629.25
2023-08-15T17:17:43.477Z,98631.13
2023-08-15T17:20:11.569Z,98635.13
2023-08-15T17:22:50.017Z,98635.13
2023-08-15T17:25:17.251Z,98632.44
2023-08-15T17:27:44.134Z,98642.09
2023-08-15T17:30:14.198Z,98639.91
2023-08-15T17:32:41.489Z,98643.03
2023-08-15T17:35:08.406Z,98646.91
2023-08-15T17:37:34.978Z,98643.13
2023-08-15T17:40:01.535Z,98650.28
2023-08-15T17:42:28.151Z,98653.31
2023-08-15T17:44:54.745Z,98658.69
2023-08-15T17:47:21.300Z,98656.31
2023-08-15T17:49:47.847Z,98653.53
2023-08-15T17:52:14.356Z,98651.66
2023-08-15T17:54:41.000Z,98658.69
2023-08-15T17:57:07.528Z,98659.22
2023-08-15T17:59:34.114Z,98669.81
2023-08-15T18:02:01.467Z,98663.06
2023-08-15T18:04:28.099Z,98671.66
2023-08-15T18:06:54.708Z,98681.47
2023-08-15T18:09:23.600Z,98679.66
2023-08-15T18:11:52.171Z,98687.63
2023-08-15T18:14:20.315Z,98689.69
2023-08-15T18:16:49.661Z,98693.19
2023-08-15T18:19:19.426Z,98684.56
2023-08-15T18:21:46.079Z,98691.50
2023-08-15T18:24:12.829Z,98700.59
2023-08-15T18:26:39.917Z,98692.34
2023-08-15T18:29:06.541Z,98697.13
2023-08-15T18:31:33.165Z,98701.31
2023-08-15T18:34:06.073Z,98699.31
2023-08-15T18:37:27.789Z,98709.13
2023-08-15T18:39:57.694Z,98710.03
2023-08-15T18:42:36.039Z,98712.19
2023-08-15T18:45:16.200Z,98707.81
2023-08-15T18:47:43.029Z,98719.75
2023-08-15T18:50:36.331Z,98719.69
2023-08-15T18:53:07.079Z,98719.50
2023-08-15T18:57:12.458Z,98720.25
2023-08-15T18:59:45.669Z,98733.81
2023-08-15T19:02:32.338Z,98731.38
2023-08-15T19:04:59.646Z,98731.75
2023-08-15T19:07:27.268Z,98736.41
2023-08-15T19:09:55.215Z,98739.50
2023-08-15T19:12:22.324Z,98742.34
2023-08-15T19:14:49.120Z,98750.78
2023-08-15T19:17:18.280Z,98752.31
2023-08-15T19:19:44.808Z,98754.09
2023-08-15T19:22:11.514Z,98759.03
2023-08-15T19:24:38.146Z,98752.47
2023-08-15T19:27:04.783Z,98757.81
2023-08-15T19:29:31.390Z,98754.59
2023-08-15T19:31:57.981Z,98751.72
2023-08-15T19:34:24.558Z,98754.47
2023-08-15T19:36:56.600Z,98761.28
2023-08-15T19:39:32.101Z,98758.94
2023-08-15T19:41:58.657Z,98760.22
2023-08-15T19:44:25.208Z,98761.25
2023-08-15T19:46:51.724Z,98758.94
2023-08-15T19:49:18.539Z,98759.69
2023-08-15T19:51:45.109Z,98761.19
2023-08-15T19:54:11.735Z,98766.69
2023-08-15T19:56:38.607Z,98765.53
2023-08-15T19:59:05.508Z,98759.84
2023-08-15T20:01:32.142Z,98756.97
2023-08-15T20:03:58.754Z,98761.84
2023-08-15T20:06:25.497Z,98756.78
2023-08-15T20:08:52.086Z,98759.38
2023-08-15T20:11:18.618Z,98763.09
2023-08-15T20:13:45.133Z,98764.63
2023-08-15T20:16:11.753Z,98766.53
2023-08-15T20:18:38.344Z,98767.25
2023-08-15T20:21:04.988Z,98759.81
2023-08-15T20:23:31.564Z,98761.56
2023-08-15T20:25:58.108Z,98768.88
2023-08-15T20:28:24.700Z,98762.97
2023-08-15T20:30:51.310Z,98761.44
2023-08-15T20:33:17.963Z,98764.09
2023-08-15T20:35:44.569Z,98765.72
2023-08-15T20:38:11.101Z,98759.94
2023-08-15T20:40:37.899Z,98763.19
2023-08-15T20:43:04.636Z,98767.53
2023-08-15T20:45:31.159Z,98762.06
2023-08-15T20:47:57.785Z,98751.06
2023-08-15T20:50:24.340Z,98753.25
2023-08-15T20:52:51.738Z,98750.38
2023-08-15T20:55:18.323Z,98764.53
2023-08-15T20:57:44.882Z,98759.41
2023-08-15T21:00:11.896Z,98758.16
2023-08-15T21:02:38.531Z,98753.84
2023-08-15T21:05:05.974Z,98755.25
2023-08-15T21:07:32.510Z,98746.19
2023-08-15T21:09:59.014Z,98749.56
2023-08-15T21:12:25.748Z,98754.91
2023-08-15T21:14:52.341Z,98747.13
2023-08-15T21:17:18.917Z,98747.72
2023-08-15T21:19:45.533Z,98747.59
2023-08-15T21:22:12.057Z,98753.63
2023-08-15T21:24:39.820Z,98745.72
2023-08-15T21:27:06.353Z,98754.78
2023-08-15T21:29:32.938Z,98753.50
2023-08-15T21:31:59.771Z,98756.50
2023-08-15T21:34:26.318Z,98760.22
2023-08-15T21:36:52.825Z,98757.19
2023-08-15T21:39:19.350Z,98753.72
2023-08-15T21:41:45.908Z,98761.38
2023-08-15T21:44:12.422Z,98754.06
2023-08-15T21:46:39.059Z,98755.34
2023-08-15T21:49:05.585Z,98764.38
2023-08-15T21:51:32.101Z,98758.84
2023-08-15T21:53:58.626Z,98761.00
2023-08-15T21:56:25.198Z,98749.09
2023-08-15T21:58:51.789Z,98755.47
2023-08-15T22:01:18.445Z,98760.00
2023-08-15T22:03:45.079Z,98762.88
2023-08-15T22:06:11.739Z,98763.34
2023-08-15T22:08:38.338Z,98766.47
2023-08-15T22:11:06.327Z,98766.47
2023-08-15T22:13:33.044Z,98763.00
2023-08-15T22:16:01.530Z,98764.72
2023-08-15T22:18:28.249Z,98775.50
2023-08-15T22:20:54.975Z,98780.59
2023-08-15T22:23:21.923Z,98786.97
2023-08-15T22:25:48.868Z,98780.22
2023-08-15T22:28:16.255Z,98782.88
2023-08-15T22:30:42.931Z,98782.00
2023-08-15T22:33:09.562Z,98792.31
2023-08-15T22:35:41.608Z,98794.41
2023-08-15T22:38:08.584Z,98786.50
2023-08-15T22:40:35.628Z,98787.09
2023-08-15T22:43:02.236Z,98782.25
2023-08-15T22:45:28.885Z,98788.94
2023-08-15T22:47:55.578Z,98786.13
2023-08-15T22:50:22.202Z,98787.16
2023-08-15T22:52:49.237Z,98790.25
2023-08-15T22:55:15.811Z,98797.53
2023-08-15T22:57:42.494Z,98797.91
2023-08-15T23:00:10.861Z,98792.06
2023-08-15T23:02:38.104Z,98790.56
2023-08-15T23:05:05.017Z,98789.53
2023-08-15T23:07:31.564Z,98781.31
2023-08-15T23:09:58.317Z,98790.13
2023-08-15T23:12:24.866Z,98778.66
2023-08-15T23:14:51.398Z,98784.88
2023-08-15T23:17:18.017Z,98780.88
2023-08-15T23:19:44.589Z,98778.53
2023-08-15T23:22:11.122Z,98790.22
2023-08-15T23:24:38.408Z,98792.53
2023-08-15T23:27:05.154Z,98794.81
2023-08-15T23:29:31.731Z,98784.16
2023-08-15T23:31:59.667Z,98786.00
2023-08-15T23:34:26.421Z,98781.13
2023-08-15T23:36:53.090Z,98784.03
2023-08-15T23:39:22.209Z,98781.88
2023-08-15T23:41:49.485Z,98779.44
2023-08-15T23:44:16.442Z,98782.19
2023-08-15T23:46:43.807Z,98780.25
2023-08-15T23:49:10.387Z,98774.63
2023-08-15T23:51:36.900Z,98766.13
2023-08-15T23:54:03.582Z,98771.22
2023-08-15T23:56:30.139Z,98776.59
2023-08-15T23:58:56.722Z,98771.97
